Latest Weather Observations for Cobar

IDN60801

Issued at 1:05 pm EDT Saturday 1 November 2014 (issued every 30 minutes, with the page automatically refreshed every 10 minutes)

About weather observations | Map of weather stations | Latest weather observations for NSW | Other Formats
Station Details ID: 048027 Name: COBAR MO Lat: -31.48 Lon: 145.83 Height: 260.0 m
Data from the previous 72 hours. | See also: Recent months at Cobar
Date/Time
EDT
Temp
°C
App
Temp
°C
Dew
Point
Rel
Hum
%
Delta-T
°C
Wind Press
QNH
hPa
Press
MSL
hPa
Rain
since 9 am
mm
Dir
 
Spd
km/h
Gust
km/h
Spd
kts
Gust
kts
01/01:00pm 29.4 22.7 7.5 25 12.0 SW 32 48 17 26 1007.7 1006.6 0.0
01/12:42pm 29.4 23.6 7.8 25 11.9 SW 28 46 15 25 1007.4 - 0.0
01/12:30pm 29.1 23.7 8.1 26 11.6 SW 26 37 14 20 1007.4 - 0.0
01/12:00pm 29.3 23.2 6.5 23 12.3 SSW 28 37 15 20 1007.4 1006.3 0.0
01/11:30am 27.5 24.4 10.3 34 9.8 W 17 24 9 13 1007.7 - 0.0
01/11:00am 26.5 23.0 11.0 38 8.9 WSW 20 28 11 15 1007.6 - 0.0
01/10:30am 26.0 23.9 13.6 46 7.4 W 17 26 9 14 1007.5 - 0.0
01/10:00am 24.0 23.3 14.3 54 5.8 WNW 11 17 6 9 1006.8 1005.7 0.0
01/09:30am 24.7 22.9 13.4 49 6.7 NNW 15 20 8 11 1006.3 - 0.0
01/09:00am 23.9 22.5 13.4 51 6.2 NW 13 17 7 9 1006.2 1005.0 0.0
01/08:30am 23.7 22.4 13.7 53 5.9 NNW 13 20 7 11 1006.4 - 0.0
01/08:00am 22.7 20.0 13.5 56 5.4 N 20 30 11 16 1006.6 - 0.0
01/07:30am 22.6 20.8 13.4 56 5.4 N 15 20 8 11 1006.7 - 0.0
01/07:00am 20.5 18.2 13.1 62 4.3 NNW 17 22 9 12 1006.5 1005.3 0.0
01/06:30am 20.2 17.3 12.9 63 4.2 N 20 28 11 15 1004.8 - 0.0
01/06:00am 20.3 17.6 12.8 62 4.3 NNE 19 26 10 14 1004.3 1003.2 0.0
01/05:30am 20.4 18.1 12.9 62 4.3 NNE 17 22 9 12 1004.6 - 0.0
01/05:00am 20.8 18.5 13.0 61 4.5 NNE 17 24 9 13 1004.8 - 0.0
01/04:30am 21.3 18.4 12.8 58 4.9 NNE 20 33 11 18 1004.7 - 0.0
01/04:00am 21.6 18.3 12.8 57 5.1 NNE 22 30 12 16 1004.6 1003.4 0.0
01/03:30am 21.9 18.2 12.7 56 5.3 NNE 24 33 13 18 1004.9 - 0.0
01/03:00am 22.3 18.5 12.4 53 5.7 NNE 24 32 13 17 1005.2 1004.0 0.0
01/02:30am 22.8 19.2 12.0 50 6.2 NNE 22 32 12 17 1005.4 - 0.0
01/02:00am 23.0 19.7 11.6 48 6.5 NNE 20 28 11 15 1005.9 - 0.0
01/01:30am 23.2 19.5 11.4 47 6.7 NNE 22 28 12 15 1006.0 - 0.0
01/01:00am 23.5 20.1 11.4 46 6.9 NE 20 30 11 16 1006.5 1005.3 0.0
01/12:30am 24.0 20.6 11.1 44 7.3 NNE 20 30 11 16 1006.9 - 0.0
01/12:00am 24.5 20.2 10.9 42 7.7 NNE 24 35 13 19 1006.9 1006.1 0.0
 
Date/Time
EDT
Temp
°C
App
Temp
°C
Dew
Point
Rel
Hum
%
Delta-T
°C
Wind Press
QNH
hPa
Press
MSL
hPa
Rain
since 9 am
mm
Dir
 
Spd
km/h
Gust
km/h
Spd
kts
Gust
kts
31/11:30pm 24.9 21.4 10.8 41 8.0 NNE 20 30 11 16 1007.0 - 0.0
31/11:00pm 25.2 22.2 10.7 40 8.2 NNE 17 30 9 16 1007.2 - 0.0
31/10:30pm 25.7 21.1 11.0 39 8.4 NNE 26 37 14 20 1007.1 - 0.0
31/10:00pm 26.3 22.2 11.4 39 8.6 NE 24 33 13 18 1007.1 1006.4 0.0
31/09:30pm 26.8 22.6 11.2 37 9.0 NNE 24 33 13 18 1006.9 - 0.0
31/09:00pm 27.6 22.9 10.7 34 9.7 NNE 26 39 14 21 1006.7 1005.9 0.0
31/08:30pm 28.5 23.0 10.6 32 10.3 NNE 30 48 16 26 1006.3 - 0.0
31/08:12pm 30.4 23.7 5.5 20 13.3 NE 30 57 16 31 1006.2 - 0.0
31/08:00pm 30.8 27.6 2.9 17 14.2 N 9 11 5 6 1005.7 - 0.0
31/07:30pm 32.0 29.3 3.7 16 14.7 NNW 7 9 4 5 1005.3 - 0.0
31/07:00pm 33.0 29.8 3.0 15 15.6 WNW 9 13 5 7 1005.2 1004.4 0.0
31/06:30pm 33.1 28.2 1.7 13 15.9 WNW 17 20 9 11 1005.3 - 0.0
31/06:00pm 33.1 25.9 0.4 12 16.3 NNW 28 41 15 22 1005.6 1004.8 0.0
31/05:30pm 33.2 26.3 0.2 12 16.4 NNW 26 50 14 27 1005.6 - 0.0
31/05:11pm 33.7 25.9 -1.1 11 16.9 NNW 30 56 16 30 1005.3 - 0.0
31/05:00pm 33.7 27.3 -1.6 10 17.0 N 22 33 12 18 1005.3 - 0.0
31/04:30pm 35.2 28.7 -2.1 9 18.0 N 22 33 12 18 1005.4 - 0.0
31/04:00pm 35.1 28.0 -4.1 8 18.4 NW 24 30 13 16 1005.8 1005.0 0.0
31/03:30pm 35.3 28.9 -5.2 7 18.6 N 20 28 11 15 1006.3 - 0.0
31/03:00pm 35.1 28.1 -7.3 6 18.9 NNW 22 35 12 19 1006.8 1006.0 0.0
31/02:30pm 35.0 28.5 -5.7 7 18.5 N 20 26 11 14 1007.3 - 0.0
31/02:00pm 34.8 26.6 -7.9 6 18.7 NW 28 35 15 19 1007.8 - 0.0
31/01:38pm 35.3 27.0 -8.7 5 19.1 N 28 46 15 25 1008.1 - 0.0
31/01:30pm 35.3 28.4 -6.6 6 18.9 N 22 32 12 17 1008.3 - 0.0
31/01:14pm 35.1 26.4 -8.9 5 19.0 NNW 30 48 16 26 1008.7 - 0.0
31/01:04pm 36.3 26.2 -10.5 4 20.0 NNW 37 48 20 26 1008.7 - 0.0
31/01:00pm 36.4 29.4 -7.6 6 19.7 N 22 32 12 17 1008.7 1007.9 0.0
31/12:30pm 35.3 27.1 -8.1 6 19.1 N 28 44 15 24 1009.5 - 0.0
31/12:00pm 35.8 28.5 -6.7 6 19.2 N 24 33 13 18 1010.1 1009.3 0.0
31/11:30am 34.4 27.0 -6.9 7 18.4 N 24 37 13 20 1010.5 - 0.0
31/11:00am 34.2 27.3 -5.7 7 18.1 N 22 32 12 17 1010.9 - 0.0
31/10:30am 32.2 25.5 -3.8 9 16.6 N 22 35 12 19 1011.4 - 0.0
31/10:00am 30.9 23.4 -4.2 10 15.9 NNE 26 35 14 19 1011.7 1011.0 0.0
31/09:30am 29.2 23.0 -3.5 11 14.8 NNE 20 35 11 19 1012.0 - 0.0
31/09:00am 27.7 20.2 -4.3 12 14.1 NNE 26 35 14 19 1012.2 1011.5 0.0
31/08:30am 25.6 19.3 -4.1 14 12.9 NNE 20 28 11 15 1012.1 - 0.0
31/08:00am 24.1 18.5 -2.7 16 11.8 NNE 17 22 9 12 1012.1 - 0.0
31/07:30am 22.0 16.9 -1.9 20 10.5 NNE 15 19 8 10 1011.9 - 0.0
31/07:00am 21.7 16.6 -2.1 20 10.4 NNE 15 19 8 10 1011.5 1010.8 0.0
31/06:30am 21.0 15.9 -2.0 21 10.0 NNE 15 17 8 9 1011.2 - 0.0
31/06:00am 20.8 15.7 -2.0 21 9.9 NE 15 19 8 10 1010.8 1010.1 0.0
31/05:30am 21.0 15.9 -2.0 21 10.0 NNE 15 19 8 10 1010.7 - 0.0
31/05:00am 21.3 15.8 -2.2 20 10.2 NE 17 20 9 11 1010.6 - 0.0
31/04:30am 21.7 16.5 -2.5 19 10.5 NE 15 19 8 10 1010.3 - 0.0
31/04:00am 21.7 16.5 -2.5 19 10.5 NE 15 17 8 9 1010.5 1009.8 0.0
31/03:30am 22.3 17.1 -2.9 18 10.9 NE 15 19 8 10 1010.6 - 0.0
31/03:00am 22.5 17.2 -3.4 17 11.1 NE 15 17 8 9 1010.7 1010.0 0.0
31/02:30am 23.3 18.0 -3.7 16 11.6 NE 15 17 8 9 1011.0 - 0.0
31/02:00am 23.3 18.0 -3.7 16 11.6 NE 15 17 8 9 1011.4 - 0.0
31/01:30am 23.0 18.0 -4.5 15 11.6 ENE 13 15 7 8 1011.9 - 0.0
31/01:00am 24.2 18.7 -5.4 13 12.4 ENE 15 17 8 9 1012.0 1011.3 0.0
31/12:30am 22.4 17.7 -5.1 15 11.4 E 11 13 6 7 1012.3 - 0.0
31/12:00am 23.5 18.5 -4.7 15 11.9 E 13 17 7 9 1012.3 1011.6 0.0
 
Date/Time
EDT
Temp
°C
App
Temp
°C
Dew
Point
Rel
Hum
%
Delta-T
°C
Wind Press
QNH
hPa
Press
MSL
hPa
Rain
since 9 am
mm
Dir
 
Spd
km/h
Gust
km/h
Spd
kts
Gust
kts
30/11:30pm 25.9 21.6 -5.3 12 13.3 SE 9 9 5 5 1012.4 - 0.0
30/11:00pm 25.8 21.9 -4.5 13 13.1 SE 7 9 4 5 1012.7 - 0.0
30/10:30pm 26.2 21.9 -5.0 12 13.4 ESE 9 9 5 5 1012.7 - 0.0
30/10:00pm 25.5 21.3 -3.8 14 12.8 ESE 9 11 5 6 1012.8 1012.0 0.0
30/09:30pm 27.0 22.5 -6.5 10 14.1 SE 9 9 5 5 1012.6 - 0.0
30/09:00pm 26.9 22.9 -5.6 11 13.9 SSE 7 9 4 5 1012.3 1011.6 0.0
30/08:30pm 29.4 25.3 -6.9 9 15.5 S 7 9 4 5 1012.1 - 0.0
30/08:00pm 30.0 26.1 -4.8 10 15.5 SSW 7 9 4 5 1011.8 - 0.0
30/07:30pm 31.0 27.0 -5.6 9 16.2 WSW 7 9 4 5 1011.6 - 0.0
30/07:00pm 32.1 26.9 -10.2 6 17.5 SW 11 17 6 9 1011.5 1010.8 0.0
30/06:30pm 33.2 29.1 -6.3 7 17.6 SW 7 11 4 6 1011.4 - 0.0
30/06:00pm 32.9 29.2 -4.9 8 17.2 NNW 6 13 3 7 1011.5 1010.8 0.0
30/05:30pm 33.3 27.6 -12.1 5 18.4 NNW 13 20 7 11 1011.5 - 0.0
30/05:00pm 33.4 29.3 -6.2 7 17.7 SSE 7 13 4 7 1011.6 - 0.0
30/04:30pm 33.5 29.3 -4.1 9 17.4 SSW 9 11 5 6 1011.8 - 0.0
30/04:00pm 33.0 27.8 -6.5 7 17.5 SW 13 20 7 11 1011.9 1011.2 0.0
30/03:30pm 32.5 27.9 -7.8 7 17.4 SE 9 15 5 8 1012.3 - 0.0
30/03:00pm 32.9 29.0 -1.8 10 16.6 ESE 9 20 5 11 1012.6 - 0.0
30/02:30pm 31.8 28.0 -4.1 9 16.4 SW 7 11 4 6 1013.5 - 0.0
30/02:00pm 32.2 28.2 -2.4 10 16.3 WNW 9 13 5 7 1014.0 - 0.0
30/01:30pm 31.0 27.6 -2.4 11 15.6 SSW 6 15 3 8 1014.6 - 0.0
30/01:00pm 30.9 26.0 -3.7 10 15.8 SE 13 17 7 9 1015.0 1014.3 0.0
30/12:30pm 30.0 26.1 -1.4 13 14.8 SSW 9 13 5 7 1015.5 - 0.0
30/12:00pm 29.2 25.3 -1.2 14 14.3 SSE 9 17 5 9 1015.9 1015.2 0.0
30/11:30am 28.8 25.2 0.4 16 13.7 W 9 15 5 8 1016.4 - 0.0
30/11:00am 28.2 24.8 1.8 18 13.0 NE 9 13 5 7 1016.8 - 0.0
30/10:30am 27.4 23.1 0.8 17 12.8 ENE 13 17 7 9 1016.8 - 0.0
30/10:00am 26.1 21.8 1.0 19 12.0 ENE 13 19 7 10 1017.0 1016.3 0.0
30/09:30am 25.6 20.5 0.7 19 11.8 NE 17 19 9 10 1016.8 - 0.0
30/09:00am 24.4 19.6 0.4 20 11.2 ENE 15 19 8 10 1016.8 1016.0 0.0
30/08:30am 22.6 18.3 1.2 24 10.0 E 13 17 7 9 1016.7 - 0.0
30/08:00am 21.2 17.8 2.1 28 9.0 E 9 13 5 7 1016.3 - 0.0
30/07:30am 20.5 16.7 1.8 29 8.7 E 11 15 6 8 1015.8 - 0.0
30/07:00am 18.2 14.9 2.4 34 7.3 E 9 11 5 6 1015.8 1015.1 0.0
30/06:30am 16.9 13.6 2.5 38 6.6 E 9 13 5 7 1015.6 - 0.0
30/06:00am 17.0 14.2 3.3 40 6.4 ESE 7 9 4 5 1015.5 1014.8 0.0
30/05:30am 17.1 14.0 3.5 40 6.4 ESE 9 9 5 5 1015.4 - 0.0
30/05:00am 18.2 15.0 2.8 35 7.2 ESE 9 11 5 6 1015.3 - 0.0
30/04:30am 18.0 14.9 3.4 38 6.9 E 9 11 5 6 1014.8 - 0.0
30/04:00am 18.2 15.1 3.4 37 7.0 ESE 9 11 5 6 1014.7 1014.0 0.0
30/03:30am 18.7 15.5 3.3 36 7.3 ESE 9 9 5 5 1014.8 - 0.0
30/03:00am 19.6 16.4 3.2 33 7.8 SE 9 9 5 5 1015.0 1014.3 0.0
30/02:30am 19.2 16.1 3.5 35 7.5 ESE 9 11 5 6 1015.0 - 0.0
30/02:00am 19.9 16.9 4.0 35 7.7 SE 9 11 5 6 1015.2 - 0.0
30/01:30am 20.9 17.7 3.2 31 8.5 SSE 9 11 5 6 1015.5 - 0.0
30/01:00am 21.3 18.1 3.3 30 8.7 SSE 9 11 5 6 1015.8 1015.1 0.0
30/12:30am 21.8 18.6 2.8 28 9.1 SSE 9 13 5 7 1015.9 - 0.0
30/12:00am 21.7 18.6 3.6 30 8.8 SSE 9 11 5 6 1016.2 1015.5 0.0
 
Date/Time
EDT
Temp
°C
App
Temp
°C
Dew
Point
Rel
Hum
%
Delta-T
°C
Wind Press
QNH
hPa
Press
MSL
hPa
Rain
since 9 am
mm
Dir
 
Spd
km/h
Gust
km/h
Spd
kts
Gust
kts
29/11:30pm 22.2 19.5 3.5 29 9.1 S 7 9 4 5 1016.3 - 0.0
29/11:00pm 22.5 19.8 3.8 29 9.2 S 7 11 4 6 1016.2 - 0.0
29/10:30pm 22.5 19.8 3.7 29 9.2 S 7 11 4 6 1016.3 - 0.0
29/10:00pm 22.9 20.0 4.4 30 9.2 SSW 9 9 5 5 1016.2 1015.5 0.0
29/09:30pm 23.2 20.2 4.3 29 9.4 SW 9 9 5 5 1015.8 - 0.0
29/09:00pm 23.8 20.7 3.8 27 9.9 SW 9 11 5 6 1015.6 1014.9 0.0
29/08:30pm 25.3 22.1 3.0 23 11.0 WSW 9 11 5 6 1015.4 - 0.0
29/08:00pm 25.8 22.7 3.6 24 11.1 WSW 9 11 5 6 1015.2 - 0.0
29/07:30pm 27.3 24.1 2.8 20 12.2 SW 9 19 5 10 1014.9 - 0.0
29/07:00pm 28.2 24.0 1.8 18 13.0 S 13 17 7 9 1014.6 - 0.0
29/06:30pm 29.0 24.7 1.3 16 13.6 SSW 13 22 7 12 1014.6 - 0.0
29/06:00pm 29.0 24.4 1.7 17 13.5 SSW 15 22 8 12 1014.6 1013.9 0.0
29/05:30pm 29.6 26.1 3.4 19 13.4 S 11 17 6 9 1014.6 - 0.0
29/05:00pm 29.3 26.0 2.4 18 13.5 NW 9 15 5 8 1014.7 - 0.0
29/04:30pm 29.6 25.1 1.9 17 13.8 SSW 15 24 8 13 1014.9 - 0.0
29/04:00pm 28.2 24.1 2.2 18 12.9 SSW 13 22 7 12 1015.3 1014.6 0.0
29/03:30pm 28.6 24.4 1.9 18 13.2 S 13 24 7 13 1015.6 - 0.0
29/03:00pm 28.3 23.8 2.4 19 12.9 W 15 28 8 15 1016.0 1015.3 0.0
29/02:30pm 28.0 24.4 2.8 19 12.6 W 11 20 6 11 1016.4 - 0.0
29/02:00pm 27.9 24.8 3.7 21 12.3 SSE 9 17 5 9 1016.8 - 0.0
29/01:30pm 27.1 23.7 4.1 23 11.7 WSW 11 19 6 10 1017.3 - 0.0

Other Formats:

Comma delimited format used in spreadsheet applications
http://www.bom.gov.au/fwo/IDN60801/IDN60801.94711.axf

JavaScript Object Notation format (JSON) in row-major order
http://www.bom.gov.au/fwo/IDN60801/IDN60801.94711.json